sensor_id;sensor_type;location;lat;lon;timestamp;pressure;altitude;pressure_sealevel;temperature;humidity
10145;BME280;5113;41.822;23.564;2023-05-03T00:01:58;-11235.59;;;10.89;100.00
10145;BME280;5113;41.822;23.564;2023-05-03T00:05:07;-11229.94;;;10.69;100.00
10145;BME280;5113;41.822;23.564;2023-05-03T00:08:17;-11233.88;;;10.83;100.00
10145;BME280;5113;41.822;23.564;2023-05-03T00:11:23;-11236.72;;;10.93;100.00
10145;BME280;5113;41.822;23.564;2023-05-03T00:14:30;-11232.47;;;10.78;100.00
10145;BME280;5113;41.822;23.564;2023-05-03T00:17:36;-11232.19;;;10.77;100.00
10145;BME280;5113;41.822;23.564;2023-05-03T00:20:43;-11233.88;;;10.83;100.00
10145;BME280;5113;41.822;23.564;2023-05-03T00:23:49;-11233.59;;;10.82;100.00
10145;BME280;5113;41.822;23.564;2023-05-03T00:26:55;-11234.75;;;10.86;100.00
10145;BME280;5113;41.822;23.564;2023-05-03T00:30:03;-11233.75;;;10.82;100.00
10145;BME280;5113;41.822;23.564;2023-05-03T00:33:10;-11234.19;;;10.84;100.00
10145;BME280;5113;41.822;23.564;2023-05-03T00:36:16;-11232.63;;;10.78;100.00
10145;BME280;5113;41.822;23.564;2023-05-03T00:39:22;-11229.53;;;10.67;100.00
10145;BME280;5113;41.822;23.564;2023-05-03T00:42:29;-11225.59;;;10.53;100.00
10145;BME280;5113;41.822;23.564;2023-05-03T00:45:36;-11229.94;;;10.69;100.00
10145;BME280;5113;41.822;23.564;2023-05-03T00:48:43;-11233.31;;;10.81;100.00
10145;BME280;5113;41.822;23.564;2023-05-03T00:51:50;-11231.63;;;10.75;100.00
10145;BME280;5113;41.822;23.564;2023-05-03T00:54:59;-11232.06;;;10.76;100.00
10145;BME280;5113;41.822;23.564;2023-05-03T00:58:05;-11231.06;;;10.73;100.00
10145;BME280;5113;41.822;23.564;2023-05-03T01:01:13;-11235.03;;;10.87;100.00
10145;BME280;5113;41.822;23.564;2023-05-03T01:04:20;-11230.22;;;10.70;100.00
10145;BME280;5113;41.822;23.564;2023-05-03T01:07:41;-11229.81;;;10.68;100.00
10145;BME280;5113;41.822;23.564;2023-05-03T01:10:56;-11225.16;;;10.51;100.00
10145;BME280;5113;41.822;23.564;2023-05-03T01:14:09;-11224.03;;;10.47;100.00
10145;BME280;5113;41.822;23.564;2023-05-03T01:17:26;-11223.19;;;10.44;100.00
10145;BME280;5113;41.822;23.564;2023-05-03T01:20:33;-11227.00;;;10.58;100.00
10145;BME280;5113;41.822;23.564;2023-05-03T01:23:45;-11226.84;;;10.57;100.00
10145;BME280;5113;41.822;23.564;2023-05-03T01:26:57;-11223.75;;;10.46;100.00
10145;BME280;5113;41.822;23.564;2023-05-03T01:30:05;-11233.31;;;10.81;100.00
10145;BME280;5113;41.822;23.564;2023-05-03T01:33:17;-11227.56;;;10.60;100.00
10145;BME280;5113;41.822;23.564;2023-05-03T01:36:29;-11228.81;;;10.65;100.00
10145;BME280;5113;41.822;23.564;2023-05-03T01:39:38;-11221.94;;;10.40;100.00
10145;BME280;5113;41.822;23.564;2023-05-03T01:42:50;-11227.97;;;10.62;100.00
10145;BME280;5113;41.822;23.564;2023-05-03T01:45:57;-11229.09;;;10.66;100.00
10145;BME280;5113;41.822;23.564;2023-05-03T01:49:03;-11228.69;;;10.64;100.00
10145;BME280;5113;41.822;23.564;2023-05-03T01:52:09;-11228.53;;;10.64;100.00
10145;BME280;5113;41.822;23.564;2023-05-03T01:55:16;-11227.41;;;10.59;100.00
10145;BME280;5113;41.822;23.564;2023-05-03T01:58:23;-11230.22;;;10.70;100.00
10145;BME280;5113;41.822;23.564;2023-05-03T02:01:30;-11231.91;;;10.76;100.00
10145;BME280;5113;41.822;23.564;2023-05-03T02:04:36;-11232.75;;;10.79;100.00
10145;BME280;5113;41.822;23.564;2023-05-03T02:07:42;-11228.25;;;10.63;100.00
10145;BME280;5113;41.822;23.564;2023-05-03T02:10:49;-11226.28;;;10.55;100.00
10145;BME280;5113;41.822;23.564;2023-05-03T02:13:57;-11229.09;;;10.66;100.00
10145;BME280;5113;41.822;23.564;2023-05-03T02:17:03;-11227.84;;;10.61;100.00
10145;BME280;5113;41.822;23.564;2023-05-03T02:20:12;-11227.69;;;10.61;100.00
10145;BME280;5113;41.822;23.564;2023-05-03T02:23:18;-11226.00;;;10.54;100.00
10145;BME280;5113;41.822;23.564;2023-05-03T02:26:24;-11220.66;;;10.35;100.00
10145;BME280;5113;41.822;23.564;2023-05-03T02:29:32;-11216.16;;;10.19;100.00
10145;BME280;5113;41.822;23.564;2023-05-03T02:32:38;-11220.38;;;10.34;100.00
10145;BME280;5113;41.822;23.564;2023-05-03T02:35:44;-11220.38;;;10.34;100.00
10145;BME280;5113;41.822;23.564;2023-05-03T02:38:50;-11218.13;;;10.26;100.00
10145;BME280;5113;41.822;23.564;2023-05-03T02:41:56;-11222.91;;;10.43;100.00
10145;BME280;5113;41.822;23.564;2023-05-03T02:45:05;-11224.31;;;10.48;100.00
10145;BME280;5113;41.822;23.564;2023-05-03T02:48:11;-11223.62;;;10.46;100.00
10145;BME280;5113;41.822;23.564;2023-05-03T02:51:17;-11225.16;;;10.51;100.00
10145;BME280;5113;41.822;23.564;2023-05-03T02:54:24;-11221.09;;;10.37;100.00
10145;BME280;5113;41.822;23.564;2023-05-03T02:57:30;-11221.09;;;10.37;100.00
10145;BME280;5113;41.822;23.564;2023-05-03T03:00:38;-11218.84;;;10.29;100.00
10145;BME280;5113;41.822;23.564;2023-05-03T03:03:44;-11223.19;;;10.44;100.00
10145;BME280;5113;41.822;23.564;2023-05-03T03:06:50;-11224.88;;;10.50;100.00
10145;BME280;5113;41.822;23.564;2023-05-03T03:09:57;-11219.97;;;10.33;100.00
10145;BME280;5113;41.822;23.564;2023-05-03T03:13:05;-11217.84;;;10.25;100.00
10145;BME280;5113;41.822;23.564;2023-05-03T03:16:12;-11218.13;;;10.26;100.00
10145;BME280;5113;41.822;23.564;2023-05-03T03:19:19;-11215.31;;;10.16;100.00
10145;BME280;5113;41.822;23.564;2023-05-03T03:22:25;-11219.97;;;10.33;100.00
10145;BME280;5113;41.822;23.564;2023-05-03T03:25:31;-11214.19;;;10.12;100.00
10145;BME280;5113;41.822;23.564;2023-05-03T03:28:38;-11217.28;;;10.23;100.00
10145;BME280;5113;41.822;23.564;2023-05-03T03:31:45;-11214.19;;;10.12;100.00
10145;BME280;5113;41.822;23.564;2023-05-03T03:34:52;-11213.06;;;10.08;100.00
10145;BME280;5113;41.822;23.564;2023-05-03T03:37:58;-11210.53;;;9.99;100.00
10145;BME280;5113;41.822;23.564;2023-05-03T03:41:04;-11207.88;;;9.89;100.00
10145;BME280;5113;41.822;23.564;2023-05-03T03:44:11;-11201.41;;;9.66;100.00
10145;BME280;5113;41.822;23.564;2023-05-03T03:47:19;-11202.09;;;9.68;100.00
10145;BME280;5113;41.822;23.564;2023-05-03T03:50:26;-11199.00;;;9.57;100.00
10145;BME280;5113;41.822;23.564;2023-05-03T03:53:32;-11196.34;;;9.47;100.00
10145;BME280;5113;41.822;23.564;2023-05-03T03:56:38;-11193.53;;;9.37;100.00
10145;BME280;5113;41.822;23.564;2023-05-03T03:59:44;-11199.28;;;9.58;100.00
10145;BME280;5113;41.822;23.564;2023-05-03T04:02:52;-11198.16;;;9.54;100.00
10145;BME280;5113;41.822;23.564;2023-05-03T04:05:58;-11188.88;;;9.20;100.00
10145;BME280;5113;41.822;23.564;2023-05-03T04:09:04;-11196.19;;;9.47;100.00
10145;BME280;5113;41.822;23.564;2023-05-03T04:12:10;-11190.84;;;9.27;100.00
10145;BME280;5113;41.822;23.564;2023-05-03T04:15:16;-11189.44;;;9.22;100.00
10145;BME280;5113;41.822;23.564;2023-05-03T04:18:24;-11198.59;;;9.55;100.00
10145;BME280;5113;41.822;23.564;2023-05-03T04:21:30;-11200.56;;;9.63;100.00
10145;BME280;5113;41.822;23.564;2023-05-03T04:24:37;-11195.63;;;9.45;100.00
10145;BME280;5113;41.822;23.564;2023-05-03T04:27:44;-11197.47;;;9.51;100.00
10145;BME280;5113;41.822;23.564;2023-05-03T04:30:51;-11193.09;;;9.36;100.00
10145;BME280;5113;41.822;23.564;2023-05-03T04:33:59;-11200.56;;;9.63;100.00
10145;BME280;5113;41.822;23.564;2023-05-03T04:37:05;-11203.50;;;9.73;100.00
10145;BME280;5113;41.822;23.564;2023-05-03T04:40:12;-11201.13;;;9.65;100.00
10145;BME280;5113;41.822;23.564;2023-05-03T04:43:20;-11204.91;;;9.78;100.00
10145;BME280;5113;41.822;23.564;2023-05-03T04:46:27;-11201.41;;;9.66;100.00
10145;BME280;5113;41.822;23.564;2023-05-03T04:49:34;-11207.44;;;9.87;100.00
10145;BME280;5113;41.822;23.564;2023-05-03T04:52:41;-11215.03;;;10.15;100.00
10145;BME280;5113;41.822;23.564;2023-05-03T04:55:47;-11211.09;;;10.01;100.00
10145;BME280;5113;41.822;23.564;2023-05-03T04:58:54;-11208.00;;;9.89;100.00
10145;BME280;5113;41.822;23.564;2023-05-03T05:02:00;-11212.78;;;10.07;100.00
10145;BME280;5113;41.822;23.564;2023-05-03T05:05:09;-11214.63;;;10.13;100.00
10145;BME280;5113;41.822;23.564;2023-05-03T05:08:16;-11217.28;;;10.23;100.00
10145;BME280;5113;41.822;23.564;2023-05-03T05:11:22;-11220.94;;;10.36;100.00
10145;BME280;5113;41.822;23.564;2023-05-03T05:14:29;-11215.75;;;10.17;100.00
10145;BME280;5113;41.822;23.564;2023-05-03T05:17:36;-11212.78;;;10.07;100.00
10145;BME280;5113;41.822;23.564;2023-05-03T05:20:43;-11215.88;;;10.18;100.00
10145;BME280;5113;41.822;23.564;2023-05-03T05:23:49;-11213.06;;;10.08;100.00
10145;BME280;5113;41.822;23.564;2023-05-03T05:26:55;-11215.75;;;10.17;100.00
10145;BME280;5113;41.822;23.564;2023-05-03T05:30:01;-11218.13;;;10.26;100.00
10145;BME280;5113;41.822;23.564;2023-05-03T05:33:09;-11217.72;;;10.24;100.00
10145;BME280;5113;41.822;23.564;2023-05-03T05:36:16;-11224.31;;;10.48;100.00
10145;BME280;5113;41.822;23.564;2023-05-03T05:39:22;-11226.00;;;10.54;100.00
10145;BME280;5113;41.822;23.564;2023-05-03T05:42:30;-11229.94;;;10.69;100.00
10145;BME280;5113;41.822;23.564;2023-05-03T05:45:36;-11227.69;;;10.61;100.00
10145;BME280;5113;41.822;23.564;2023-05-03T05:48:43;-11237.84;;;10.97;100.00
10145;BME280;5113;41.822;23.564;2023-05-03T05:51:50;-11231.06;;;10.73;100.00
10145;BME280;5113;41.822;23.564;2023-05-03T05:54:57;-11234.19;;;10.84;100.00
10145;BME280;5113;41.822;23.564;2023-05-03T05:58:03;-11233.31;;;10.81;100.00
10145;BME280;5113;41.822;23.564;2023-05-03T06:01:10;-11244.03;;;11.19;100.00
10145;BME280;5113;41.822;23.564;2023-05-03T06:04:16;-11237.56;;;10.96;100.00
10145;BME280;5113;41.822;23.564;2023-05-03T06:07:24;-11245.00;;;11.23;100.00
10145;BME280;5113;41.822;23.564;2023-05-03T06:10:30;-11253.59;;;11.54;100.00
10145;BME280;5113;41.822;23.564;2023-05-03T06:13:36;-11246.28;;;11.28;100.00
10145;BME280;5113;41.822;23.564;2023-05-03T06:16:44;-11247.97;;;11.34;100.00
10145;BME280;5113;41.822;23.564;2023-05-03T06:19:50;-11250.78;;;11.44;100.00
10145;BME280;5113;41.822;23.564;2023-05-03T06:22:58;-11252.19;;;11.49;100.00
10145;BME280;5113;41.822;23.564;2023-05-03T06:26:05;-11251.47;;;11.46;100.00
10145;BME280;5113;41.822;23.564;2023-05-03T06:29:12;-11254.72;;;11.58;100.00
10145;BME280;5113;41.822;23.564;2023-05-03T06:32:18;-11247.69;;;11.33;100.00
10145;BME280;5113;41.822;23.564;2023-05-03T06:35:25;-11257.53;;;11.68;100.00
10145;BME280;5113;41.822;23.564;2023-05-03T06:38:33;-11237.56;;;10.96;100.00
10145;BME280;5113;41.822;23.564;2023-05-03T06:41:39;-11242.59;;;11.14;100.00
10145;BME280;5113;41.822;23.564;2023-05-03T06:44:46;-11238.38;;;10.99;100.00
10145;BME280;5113;41.822;23.564;2023-05-03T06:47:52;-11221.94;;;10.40;100.00
10145;BME280;5113;41.822;23.564;2023-05-03T06:50:58;-11240.91;;;11.08;100.00
10145;BME280;5113;41.822;23.564;2023-05-03T06:54:06;-11242.19;;;11.13;100.00
10145;BME280;5113;41.822;23.564;2023-05-03T06:57:13;-11240.34;;;11.06;100.00
10145;BME280;5113;41.822;23.564;2023-05-03T07:00:20;-11239.78;;;11.04;100.00
10145;BME280;5113;41.822;23.564;2023-05-03T07:03:27;-11263.59;;;11.90;100.00
10145;BME280;5113;41.822;23.564;2023-05-03T07:06:33;-11286.09;;;12.71;100.00
10145;BME280;5113;41.822;23.564;2023-05-03T07:10:00;-11285.41;;;12.69;100.00
10145;BME280;5113;41.822;23.564;2023-05-03T07:13:07;-11272.88;;;12.23;100.00
10145;BME280;5113;41.822;23.564;2023-05-03T07:16:13;-11280.59;;;12.51;100.00
10145;BME280;5113;41.822;23.564;2023-05-03T07:19:19;-11287.91;;;12.78;100.00
10145;BME280;5113;41.822;23.564;2023-05-03T07:22:26;-11286.09;;;12.71;100.00
10145;BME280;5113;41.822;23.564;2023-05-03T07:25:33;-11283.69;;;12.63;100.00
10145;BME280;5113;41.822;23.564;2023-05-03T07:28:40;-11281.72;;;12.55;100.00
10145;BME280;5113;41.822;23.564;2023-05-03T07:31:46;-11289.75;;;12.84;100.00
10145;BME280;5113;41.822;23.564;2023-05-03T07:34:55;-11284.56;;;12.66;100.00
10145;BME280;5113;41.822;23.564;2023-05-03T07:38:01;-11289.47;;;12.83;100.00
10145;BME280;5113;41.822;23.564;2023-05-03T07:41:09;-11293.28;;;12.97;100.00
10145;BME280;5113;41.822;23.564;2023-05-03T07:44:15;-11284.28;;;12.65;100.00
10145;BME280;5113;41.822;23.564;2023-05-03T07:47:21;-11305.09;;;13.40;100.00
10145;BME280;5113;41.822;23.564;2023-05-03T07:50:27;-11298.63;;;13.16;100.00
10145;BME280;5113;41.822;23.564;2023-05-03T07:53:33;-11300.88;;;13.25;100.00
10145;BME280;5113;41.822;23.564;2023-05-03T07:56:41;-11308.75;;;13.53;100.00
10145;BME280;5113;41.822;23.564;2023-05-03T07:59:47;-11330.72;;;14.32;100.00
10145;BME280;5113;41.822;23.564;2023-05-03T08:02:53;-11331.72;;;14.36;100.00
10145;BME280;5113;41.822;23.564;2023-05-03T08:06:00;-11342.13;;;14.73;100.00
10145;BME280;5113;41.822;23.564;2023-05-03T08:09:06;-11320.72;;;13.96;100.00
10145;BME280;5113;41.822;23.564;2023-05-03T08:12:14;-11300.75;;;13.24;100.00
10145;BME280;5113;41.822;23.564;2023-05-03T08:15:21;-11309.03;;;13.54;100.00
10145;BME280;5113;41.822;23.564;2023-05-03T08:18:28;-11283.13;;;12.61;100.00
10145;BME280;5113;41.822;23.564;2023-05-03T08:21:34;-11291.31;;;12.90;100.00
10145;BME280;5113;41.822;23.564;2023-05-03T08:24:41;-11319.31;;;13.91;100.00
10145;BME280;5113;41.822;23.564;2023-05-03T08:27:49;-11326.94;;;14.18;100.00
10145;BME280;5113;41.822;23.564;2023-05-03T08:30:55;-11324.66;;;14.10;100.00
10145;BME280;5113;41.822;23.564;2023-05-03T08:34:02;-11349.31;;;14.99;96.45
10145;BME280;5113;41.822;23.564;2023-05-03T08:37:10;-11358.34;;;15.32;95.79
10145;BME280;5113;41.822;23.564;2023-05-03T08:40:20;-11385.81;;;16.31;90.30
10145;BME280;5113;41.822;23.564;2023-05-03T08:43:31;-11312.41;;;13.66;97.98
10145;BME280;5113;41.822;23.564;2023-05-03T08:46:42;-11340.31;;;14.67;96.66
10145;BME280;5113;41.822;23.564;2023-05-03T08:49:50;-11348.34;;;14.96;96.42
10145;BME280;5113;41.822;23.564;2023-05-03T08:52:58;-11350.59;;;15.04;93.85
10145;BME280;5113;41.822;23.564;2023-05-03T08:56:06;-11319.75;;;13.93;97.05
10145;BME280;5113;41.822;23.564;2023-05-03T08:59:14;-11328.19;;;14.23;95.89
10145;BME280;5113;41.822;23.564;2023-05-03T09:02:21;-11337.78;;;14.58;96.55
10145;BME280;5113;41.822;23.564;2023-05-03T09:05:32;-11330.31;;;14.31;97.40
10145;BME280;5113;41.822;23.564;2023-05-03T09:08:41;-11345.66;;;14.86;99.84
10145;BME280;5113;41.822;23.564;2023-05-03T09:11:48;-11339.75;;;14.65;98.21
10145;BME280;5113;41.822;23.564;2023-05-03T09:14:56;-11325.50;;;14.13;100.00
10145;BME280;5113;41.822;23.564;2023-05-03T09:18:06;-11334.09;;;14.44;100.00
10145;BME280;5113;41.822;23.564;2023-05-03T09:21:18;-11329.47;;;14.28;100.00
10145;BME280;5113;41.822;23.564;2023-05-03T09:24:24;-11342.97;;;14.76;98.77
10145;BME280;5113;41.822;23.564;2023-05-03T09:27:31;-11359.87;;;15.37;100.00
10145;BME280;5113;41.822;23.564;2023-05-03T09:30:39;-11353.41;;;15.14;100.00
10145;BME280;5113;41.822;23.564;2023-05-03T09:33:46;-11361.44;;;15.43;100.00
10145;BME280;5113;41.822;23.564;2023-05-03T09:36:52;-11352.41;;;15.10;100.00
10145;BME280;5113;41.822;23.564;2023-05-03T09:40:04;-11367.91;;;15.66;100.00
10145;BME280;5113;41.822;23.564;2023-05-03T09:43:13;-11368.75;;;15.69;100.00
10145;BME280;5113;41.822;23.564;2023-05-03T09:46:24;-11365.66;;;15.58;100.00
10145;BME280;5113;41.822;23.564;2023-05-03T09:49:33;-11371.16;;;15.78;100.00
10145;BME280;5113;41.822;23.564;2023-05-03T09:52:40;-11384.81;;;16.27;98.09
10145;BME280;5113;41.822;23.564;2023-05-03T09:55:47;-11377.78;;;16.02;99.26
10145;BME280;5113;41.822;23.564;2023-05-03T09:58:55;-11367.91;;;15.66;97.29
10145;BME280;5113;41.822;23.564;2023-05-03T10:02:06;-11374.13;;;15.89;96.04
10145;BME280;5113;41.822;23.564;2023-05-03T10:05:13;-11399.06;;;16.78;91.92
10145;BME280;5113;41.822;23.564;2023-05-03T10:08:25;-11414.41;;;17.34;87.37
10145;BME280;5113;41.822;23.564;2023-05-03T10:11:34;-11386.94;;;16.35;81.74
10145;BME280;5113;41.822;23.564;2023-05-03T10:14:42;-11383.13;;;16.21;85.77
10145;BME280;5113;41.822;23.564;2023-05-03T10:17:52;-11376.09;;;15.96;88.96
10145;BME280;5113;41.822;23.564;2023-05-03T10:21:05;-11362.00;;;15.45;92.19
10145;BME280;5113;41.822;23.564;2023-05-03T10:24:12;-11372.28;;;15.82;91.78
10145;BME280;5113;41.822;23.564;2023-05-03T10:27:20;-11359.31;;;15.35;96.66
10145;BME280;5113;41.822;23.564;2023-05-03T10:30:28;-11355.22;;;15.20;100.00
10145;BME280;5113;41.822;23.564;2023-05-03T10:33:36;-11353.69;;;15.15;100.00
10145;BME280;5113;41.822;23.564;2023-05-03T10:36:43;-11356.06;;;15.24;100.00
10145;BME280;5113;41.822;23.564;2023-05-03T10:39:54;-11355.78;;;15.23;100.00
10145;BME280;5113;41.822;23.564;2023-05-03T10:43:03;-11347.22;;;14.92;100.00
10145;BME280;5113;41.822;23.564;2023-05-03T10:46:29;-11339.75;;;14.65;100.00
10145;BME280;5113;41.822;23.564;2023-05-03T10:49:37;-11338.63;;;14.61;100.00
10145;BME280;5113;41.822;23.564;2023-05-03T10:52:47;-11335.78;;;14.50;100.00
10145;BME280;5113;41.822;23.564;2023-05-03T10:56:00;-11336.22;;;14.52;100.00
10145;BME280;5113;41.822;23.564;2023-05-03T10:59:08;-11329.03;;;14.26;100.00
10145;BME280;5113;41.822;23.564;2023-05-03T11:02:20;-11321.56;;;13.99;100.00
10145;BME280;5113;41.822;23.564;2023-05-03T11:05:32;-11313.97;;;13.72;100.00
10145;BME280;5113;41.822;23.564;2023-05-03T11:08:39;-11308.19;;;13.51;100.00
10145;BME280;5113;41.822;23.564;2023-05-03T11:11:46;-11309.88;;;13.57;100.00
10145;BME280;5113;41.822;23.564;2023-05-03T11:14:52;-11307.06;;;13.47;100.00
10145;BME280;5113;41.822;23.564;2023-05-03T11:17:58;-11310.44;;;13.59;100.00
10145;BME280;5113;41.822;23.564;2023-05-03T11:21:06;-11300.59;;;13.24;100.00
10145;BME280;5113;41.822;23.564;2023-05-03T11:24:13;-11302.56;;;13.31;100.00
10145;BME280;5113;41.822;23.564;2023-05-03T11:27:22;-11300.19;;;13.22;100.00
10145;BME280;5113;41.822;23.564;2023-05-03T11:30:32;-11301.44;;;13.27;100.00
10145;BME280;5113;41.822;23.564;2023-05-03T11:33:38;-11296.78;;;13.10;100.00
10145;BME280;5113;41.822;23.564;2023-05-03T11:36:46;-11296.66;;;13.09;100.00
10145;BME280;5113;41.822;23.564;2023-05-03T11:39:53;-11296.78;;;13.10;100.00
10145;BME280;5113;41.822;23.564;2023-05-03T11:42:59;-11291.88;;;12.92;100.00
10145;BME280;5113;41.822;23.564;2023-05-03T11:46:06;-11285.41;;;12.69;100.00
10145;BME280;5113;41.822;23.564;2023-05-03T11:49:16;-11284.56;;;12.66;100.00
10145;BME280;5113;41.822;23.564;2023-05-03T11:52:26;-11286.09;;;12.71;100.00
10145;BME280;5113;41.822;23.564;2023-05-03T11:55:32;-11287.63;;;12.77;100.00
10145;BME280;5113;41.822;23.564;2023-05-03T11:58:48;-11287.50;;;12.76;100.00
10145;BME280;5113;41.822;23.564;2023-05-03T12:01:56;-11294.41;;;13.01;100.00
10145;BME280;5113;41.822;23.564;2023-05-03T12:05:03;-11294.13;;;13.00;100.00
10145;BME280;5113;41.822;23.564;2023-05-03T12:08:13;-11288.63;;;12.80;100.00
10145;BME280;5113;41.822;23.564;2023-05-03T12:11:24;-11283.41;;;12.62;100.00
10145;BME280;5113;41.822;23.564;2023-05-03T12:14:56;-11284.28;;;12.65;100.00
10145;BME280;5113;41.822;23.564;2023-05-03T12:18:05;-11282.84;;;12.60;100.00
10145;BME280;5113;41.822;23.564;2023-05-03T12:21:14;-11278.06;;;12.42;100.00
10145;BME280;5113;41.822;23.564;2023-05-03T12:24:24;-11269.91;;;12.13;100.00
10145;BME280;5113;41.822;23.564;2023-05-03T12:27:32;-11277.09;;;12.39;100.00
10145;BME280;5113;41.822;23.564;2023-05-03T12:30:40;-11275.81;;;12.34;100.00
10145;BME280;5113;41.822;23.564;2023-05-03T12:33:49;-11282.28;;;12.57;100.00
10145;BME280;5113;41.822;23.564;2023-05-03T12:36:58;-11280.03;;;12.49;100.00
10145;BME280;5113;41.822;23.564;2023-05-03T12:40:11;-11279.63;;;12.48;100.00
10145;BME280;5113;41.822;23.564;2023-05-03T12:43:37;-11274.41;;;12.29;100.00
10145;BME280;5113;41.822;23.564;2023-05-03T12:46:47;-11277.66;;;12.41;100.00
10145;BME280;5113;41.822;23.564;2023-05-03T12:49:56;-11274.97;;;12.31;100.00
10145;BME280;5113;41.822;23.564;2023-05-03T12:53:03;-11274.69;;;12.30;100.00
10145;BME280;5113;41.822;23.564;2023-05-03T12:56:15;-11276.09;;;12.35;100.00
10145;BME280;5113;41.822;23.564;2023-05-03T12:59:21;-11262.72;;;11.87;100.00
10145;BME280;5113;41.822;23.564;2023-05-03T13:02:30;-11267.38;;;12.04;100.00
10145;BME280;5113;41.822;23.564;2023-05-03T13:05:40;-11265.28;;;11.96;100.00
10145;BME280;5113;41.822;23.564;2023-05-03T13:08:47;-11260.34;;;11.78;100.00
10145;BME280;5113;41.822;23.564;2023-05-03T13:11:56;-11258.66;;;11.72;100.00
10145;BME280;5113;41.822;23.564;2023-05-03T13:15:04;-11256.53;;;11.65;100.00
10145;BME280;5113;41.822;23.564;2023-05-03T13:18:11;-11264.28;;;11.93;100.00
10145;BME280;5113;41.822;23.564;2023-05-03T13:21:18;-11264.28;;;11.93;100.00
10145;BME280;5113;41.822;23.564;2023-05-03T13:24:24;-11259.22;;;11.74;100.00
10145;BME280;5113;41.822;23.564;2023-05-03T13:27:32;-11260.19;;;11.78;100.00
10145;BME280;5113;41.822;23.564;2023-05-03T13:30:38;-11265.84;;;11.98;100.00
10145;BME280;5113;41.822;23.564;2023-05-03T13:33:44;-11271.03;;;12.17;100.00
10145;BME280;5113;41.822;23.564;2023-05-03T13:36:52;-11266.53;;;12.01;100.00
10145;BME280;5113;41.822;23.564;2023-05-03T13:39:58;-11266.13;;;11.99;100.00
10145;BME280;5113;41.822;23.564;2023-05-03T13:43:05;-11262.59;;;11.86;100.00
10145;BME280;5113;41.822;23.564;2023-05-03T13:46:12;-11272.03;;;12.20;100.00
10145;BME280;5113;41.822;23.564;2023-05-03T13:49:18;-11278.91;;;12.45;100.00
10145;BME280;5113;41.822;23.564;2023-05-03T13:52:25;-11275.41;;;12.33;100.00
10145;BME280;5113;41.822;23.564;2023-05-03T13:55:31;-11272.03;;;12.20;100.00
10145;BME280;5113;41.822;23.564;2023-05-03T13:58:39;-11262.31;;;11.85;100.00
10145;BME280;5113;41.822;23.564;2023-05-03T14:01:45;-11263.72;;;11.90;100.00
10145;BME280;5113;41.822;23.564;2023-05-03T14:04:52;-11267.94;;;12.06;100.00
10145;BME280;5113;41.822;23.564;2023-05-03T14:07:58;-11290.31;;;12.86;100.00
10145;BME280;5113;41.822;23.564;2023-05-03T14:11:11;-11281.59;;;12.55;100.00
10145;BME280;5113;41.822;23.564;2023-05-03T14:14:19;-11266.53;;;12.01;100.00
10145;BME280;5113;41.822;23.564;2023-05-03T14:17:25;-11273.28;;;12.25;100.00
10145;BME280;5113;41.822;23.564;2023-05-03T14:20:32;-11271.03;;;12.17;100.00
10145;BME280;5113;41.822;23.564;2023-05-03T14:23:39;-11264.00;;;11.92;100.00
10145;BME280;5113;41.822;23.564;2023-05-03T14:26:45;-11270.75;;;12.16;100.00
10145;BME280;5113;41.822;23.564;2023-05-03T14:29:53;-11273.84;;;12.27;100.00
10145;BME280;5113;41.822;23.564;2023-05-03T14:32:59;-11274.12;;;12.28;100.00
10145;BME280;5113;41.822;23.564;2023-05-03T14:36:06;-11275.25;;;12.32;100.00
10145;BME280;5113;41.822;23.564;2023-05-03T14:39:13;-11274.41;;;12.29;100.00
10145;BME280;5113;41.822;23.564;2023-05-03T14:42:20;-11281.59;;;12.55;100.00
10145;BME280;5113;41.822;23.564;2023-05-03T14:45:27;-11278.22;;;12.43;100.00
10145;BME280;5113;41.822;23.564;2023-05-03T14:48:33;-11276.25;;;12.36;100.00
10145;BME280;5113;41.822;23.564;2023-05-03T14:51:40;-11275.53;;;12.33;100.00
10145;BME280;5113;41.822;23.564;2023-05-03T14:54:48;-11269.06;;;12.10;100.00
10145;BME280;5113;41.822;23.564;2023-05-03T14:57:54;-11274.00;;;12.28;100.00
10145;BME280;5113;41.822;23.564;2023-05-03T15:01:01;-11265.13;;;11.96;100.00
10145;BME280;5113;41.822;23.564;2023-05-03T15:04:08;-11263.59;;;11.90;100.00
10145;BME280;5113;41.822;23.564;2023-05-03T15:07:14;-11272.16;;;12.21;100.00
10145;BME280;5113;41.822;23.564;2023-05-03T15:10:20;-11270.34;;;12.14;100.00
10145;BME280;5113;41.822;23.564;2023-05-03T15:13:27;-11269.06;;;12.10;100.00
10145;BME280;5113;41.822;23.564;2023-05-03T15:16:34;-11269.34;;;12.11;100.00
10145;BME280;5113;41.822;23.564;2023-05-03T15:19:41;-11263.44;;;11.89;100.00
10145;BME280;5113;41.822;23.564;2023-05-03T15:22:47;-11267.38;;;12.04;100.00
10145;BME280;5113;41.822;23.564;2023-05-03T15:25:53;-11269.91;;;12.13;100.00
10145;BME280;5113;41.822;23.564;2023-05-03T15:28:59;-11267.09;;;12.03;100.00
10145;BME280;5113;41.822;23.564;2023-05-03T15:32:07;-11261.59;;;11.83;100.00
10145;BME280;5113;41.822;23.564;2023-05-03T15:35:13;-11266.25;;;12.00;100.00
10145;BME280;5113;41.822;23.564;2023-05-03T15:38:20;-11263.31;;;11.89;100.00
10145;BME280;5113;41.822;23.564;2023-05-03T15:41:26;-11265.13;;;11.96;100.00
10145;BME280;5113;41.822;23.564;2023-05-03T15:44:33;-11263.03;;;11.88;100.00
10145;BME280;5113;41.822;23.564;2023-05-03T15:47:40;-11263.59;;;11.90;100.00
10145;BME280;5113;41.822;23.564;2023-05-03T15:50:47;-11266.97;;;12.02;100.00
10145;BME280;5113;41.822;23.564;2023-05-03T15:53:53;-11265.00;;;11.95;100.00
10145;BME280;5113;41.822;23.564;2023-05-03T15:57:00;-11266.81;;;12.02;100.00
10145;BME280;5113;41.822;23.564;2023-05-03T16:00:10;-11266.53;;;12.01;100.00
10145;BME280;5113;41.822;23.564;2023-05-03T16:03:18;-11267.94;;;12.06;100.00
10145;BME280;5113;41.822;23.564;2023-05-03T16:06:25;-11266.97;;;12.02;100.00
10145;BME280;5113;41.822;23.564;2023-05-03T16:09:32;-11257.09;;;11.67;100.00